Terminal Aerodrome Forecast
Issued by NWS Corpus Christi, TX

Home | Current Version | Previous Version | Text Only | Print | Product List | Glossary On
Versions: 1 2 3 4 5 6 7 8 9 10 11 12 13 14
000
FTUS44 KCRP 032323
TAFCRP
TAF
KCRP 032323Z 0400/0424 13012KT P6SM FEW030 BKN150
     FM040500 17004KT P6SM FEW015
     FM041400 15012KT P6SM SCT025
     FM042000 14015G22KT P6SM SCT035=

USA.gov is the U.S. government's official web portal to all federal, state and local government web resources and services.